Time;durP1;ratioP1;P1;durP2;ratioP2;P2;SDS_P1;SDS_P2;PMS_P1;PMS_P2;Temp;Humidity;BMP_temperature;BMP_pressure;BME280_temperature;BME280_humidity;BME280_pressure;Samples;Min_cycle;Max_cycle;Signal;HPM_P1;HPM_P2
2023/01/18 00:00:26;;;;;;;7.67;4.47;;;;;;;2.04;62.80;98839.50;4910173;28;97786;-49
2023/01/18 00:02:53;;;;;;;8.33;5.70;;;;;;;2.03;63.16;98850.84;4909842;28;97244;-49
2023/01/18 00:05:21;;;;;;;6.70;4.90;;;;;;;2.03;63.09;98845.41;4908509;28;97171;-48
2023/01/18 00:07:47;;;;;;;6.47;4.10;;;;;;;2.04;62.90;98849.59;4910052;28;96841;-49
2023/01/18 00:10:12;;;;;;;7.57;4.37;;;;;;;2.03;63.22;98851.56;4915963;28;96711;-48
2023/01/18 00:12:37;;;;;;;7.00;4.27;;;;;;;2.05;63.35;98851.81;4910968;28;97107;-48
2023/01/18 00:15:04;;;;;;;9.70;5.27;;;;;;;2.05;63.10;98854.53;4908235;28;97043;-51
2023/01/18 00:17:29;;;;;;;8.67;5.07;;;;;;;2.08;63.15;98850.13;4913806;28;96976;-48
2023/01/18 00:19:54;;;;;;;7.23;4.40;;;;;;;2.02;62.81;98843.91;4914175;28;97350;-48
2023/01/18 00:22:20;;;;;;;5.37;4.23;;;;;;;2.05;62.69;98851.81;4907081;28;97252;-49
2023/01/18 00:24:45;;;;;;;8.13;5.07;;;;;;;2.05;62.83;98851.81;4909330;28;97017;-49
2023/01/18 00:27:10;;;;;;;7.07;4.70;;;;;;;2.06;63.05;98844.44;4910390;28;96849;-50
2023/01/18 00:29:36;;;;;;;5.33;4.40;;;;;;;2.07;63.09;98846.69;4907720;28;96888;-48
2023/01/18 00:32:01;;;;;;;8.87;4.63;;;;;;;2.08;63.08;98852.84;4912595;28;96714;-49
2023/01/18 00:34:27;;;;;;;7.73;5.10;;;;;;;2.08;62.73;98860.97;4914358;28;97203;-49
2023/01/18 00:36:52;;;;;;;7.50;4.27;;;;;;;2.02;62.80;98841.19;4911388;28;97251;-48
2023/01/18 00:39:17;;;;;;;8.57;4.73;;;;;;;2.05;63.01;98846.41;4917833;28;97396;-49
2023/01/18 00:43:37;;;;;;;9.57;4.90;;;;;;;2.03;62.90;98848.13;4912597;28;97054;-50
2023/01/18 00:44:28;;;;;;;8.77;4.80;;;;;;;2.01;62.97;98851.28;4905868;28;96924;-48
2023/01/18 00:46:54;;;;;;;8.07;4.47;;;;;;;1.98;62.73;98841.41;4911559;28;97184;-48
2023/01/18 00:49:20;;;;;;;7.37;4.07;;;;;;;1.99;62.84;98848.31;4912016;28;97307;-49
2023/01/18 00:51:46;;;;;;;8.80;4.97;;;;;;;1.97;62.74;98844.59;4907085;28;97218;-49
2023/01/18 00:54:11;;;;;;;7.97;4.87;;;;;;;1.95;62.54;98844.31;4911601;28;96736;-48
2023/01/18 00:56:36;;;;;;;7.73;4.13;;;;;;;1.91;63.13;98844.53;4915584;28;97134;-48
2023/01/18 00:59:02;;;;;;;10.10;4.70;;;;;;;1.89;62.94;98848.94;4908389;28;98108;-48
2023/01/18 01:01:27;;;;;;;6.33;4.50;;;;;;;1.85;62.78;98837.56;4911903;28;97829;-48
2023/01/18 01:06:43;;;;;;;6.33;4.07;;;;;;;1.87;63.13;98835.13;4905950;28;97317;-50
2023/01/18 01:09:28;;;;;;;6.00;4.30;;;;;;;1.88;62.85;98847.47;4911346;28;97655;-48
2023/01/18 01:28:52;;;;;;;6.73;3.73;;;;;;;1.78;62.83;98837.97;4927319;28;97232;-48
2023/01/18 01:31:18;;;;;;;7.03;4.07;;;;;;;1.81;62.97;98842.47;4912567;28;97223;-48
2023/01/18 01:33:47;;;;;;;7.03;4.57;;;;;;;1.80;62.95;98839.00;4912899;28;97146;-48
2023/01/18 01:36:18;;;;;;;6.60;4.70;;;;;;;1.80;62.78;98840.97;4910563;28;97346;-49
2023/01/18 01:38:44;;;;;;;5.50;4.10;;;;;;;1.79;62.72;98842.19;4912115;28;96832;-48
2023/01/18 01:41:19;;;;;;;6.73;4.43;;;;;;;1.76;62.71;98840.44;4913951;28;97295;-49
2023/01/18 01:43:51;;;;;;;5.27;3.90;;;;;;;1.74;62.89;98838.19;4909998;28;97196;-49
2023/01/18 01:46:57;;;;;;;6.90;4.10;;;;;;;1.67;63.08;98829.72;4915946;28;96903;-49
2023/01/18 01:49:33;;;;;;;15.03;4.90;;;;;;;1.63;62.82;98821.81;4857721;28;96855;-49
2023/01/18 01:52:02;;;;;;;7.40;4.53;;;;;;;1.56;62.55;98827.63;4903010;28;97413;-48
2023/01/18 01:54:35;;;;;;;7.90;4.90;;;;;;;1.52;62.82;98829.81;4911888;28;97222;-49
2023/01/18 01:57:25;;;;;;;5.63;4.47;;;;;;;1.48;62.89;98834.69;4912341;28;96741;-48
2023/01/18 02:00:03;;;;;;;7.60;4.57;;;;;;;1.46;62.73;98835.16;4908345;28;96647;-48
2023/01/18 02:02:31;;;;;;;10.13;4.90;;;;;;;1.47;62.99;98838.59;4913643;28;97327;-48
2023/01/18 02:04:59;;;;;;;7.93;5.27;;;;;;;1.47;62.76;98833.94;4914357;28;96652;-48
2023/01/18 02:07:27;;;;;;;7.43;4.37;;;;;;;1.51;63.02;98833.72;4927565;28;97143;-49
2023/01/18 02:09:55;;;;;;;9.80;4.37;;;;;;;1.56;62.99;98843.13;4914977;28;97094;-49
2023/01/18 02:12:20;;;;;;;9.43;4.90;;;;;;;1.58;62.65;98836.03;4913652;28;96675;-49
2023/01/18 02:14:46;;;;;;;5.27;3.77;;;;;;;1.58;63.08;98840.69;4909277;28;97397;-48
2023/01/18 02:17:20;;;;;;;7.63;4.50;;;;;;;1.56;62.47;98835.00;4912295;28;96609;-49
2023/01/18 02:20:07;;;;;;;10.37;4.77;;;;;;;1.52;62.75;98860.38;4912305;28;97918;-49
2023/01/18 02:22:35;;;;;;;5.20;4.00;;;;;;;1.48;62.72;98849.00;4909765;28;97429;-48
2023/01/18 02:25:12;;;;;;;7.33;4.53;;;;;;;1.46;62.90;98845.25;4913303;28;97085;-48
2023/01/18 02:28:00;;;;;;;11.70;4.87;;;;;;;1.41;62.47;98848.63;4911715;28;96975;-48
2023/01/18 02:30:40;;;;;;;9.53;5.27;;;;;;;1.35;62.59;98850.53;4909550;28;96683;-50
2023/01/18 02:33:14;;;;;;;6.67;4.60;;;;;;;1.32;62.85;98856.88;4911551;28;97453;-49
2023/01/18 02:35:50;;;;;;;8.47;4.40;;;;;;;1.34;62.89;98854.44;4910999;28;97045;-50
2023/01/18 02:38:26;;;;;;;5.70;4.17;;;;;;;1.34;62.76;98854.44;4910705;28;96685;-49
2023/01/18 02:46:29;;;;;;;6.37;4.27;;;;;;;1.36;62.96;98849.28;4912364;28;97067;-50
2023/01/18 02:47:07;;;;;;;9.83;4.60;;;;;;;1.31;62.75;98858.13;4909463;28;97000;-48
2023/01/18 02:49:33;;;;;;;7.03;4.47;;;;;;;1.30;62.63;98860.06;4912270;28;96980;-48
2023/01/18 02:52:04;;;;;;;7.37;4.10;;;;;;;1.29;62.69;98863.97;4911838;28;96675;-49
2023/01/18 02:54:34;;;;;;;7.80;4.70;;;;;;;1.30;62.70;98865.50;4911978;28;96793;-49
2023/01/18 02:57:03;;;;;;;8.60;5.00;;;;;;;1.34;62.55;98865.28;4914380;28;96936;-48
2023/01/18 02:59:34;;;;;;;6.70;4.90;;;;;;;1.34;62.74;98870.69;4909580;28;97040;-50
2023/01/18 03:02:03;;;;;;;7.73;4.47;;;;;;;1.34;62.61;98868.00;4918634;28;96827;-48
2023/01/18 03:04:34;;;;;;;7.90;5.30;;;;;;;1.31;62.79;98866.25;4912823;28;97164;-49
2023/01/18 03:07:11;;;;;;;6.83;4.40;;;;;;;1.31;62.68;98863.53;4909924;28;97204;-49
2023/01/18 03:09:38;;;;;;;7.10;4.27;;;;;;;1.29;62.73;98868.69;4914891;28;96989;-49
2023/01/18 03:12:26;;;;;;;13.83;4.93;;;;;;;1.26;62.69;98859.53;4909587;28;96776;-51
2023/01/18 03:15:03;;;;;;;9.73;4.00;;;;;;;1.22;62.79;98867.09;4907811;28;97120;-50
2023/01/18 03:17:52;;;;;;;5.60;3.80;;;;;;;1.20;62.56;98874.22;4913054;28;97486;-48
2023/01/18 03:20:24;;;;;;;5.50;4.37;;;;;;;1.18;62.84;98871.97;4910691;28;96981;-49
2023/01/18 03:25:43;;;;;;;9.00;4.50;;;;;;;1.17;62.69;98877.84;4913143;28;97160;-48
2023/01/18 03:34:27;;;;;;;5.63;4.07;;;;;;;1.09;62.56;98891.03;4907877;28;96618;-49
2023/01/18 03:36:56;;;;;;;5.83;4.50;;;;;;;1.04;62.59;98893.66;4904141;28;96749;-48
2023/01/18 03:39:40;;;;;;;5.83;4.03;;;;;;;1.01;62.51;98898.03;4912190;28;96688;-48
2023/01/18 03:42:11;;;;;;;5.90;4.10;;;;;;;1.00;62.73;98910.09;4909269;28;97069;-48
2023/01/18 03:44:43;;;;;;;7.67;4.93;;;;;;;0.98;62.69;98893.59;4905957;28;96720;-49
2023/01/18 03:47:09;;;;;;;6.20;4.70;;;;;;;0.99;62.40;98905.13;4914037;28;97509;-49
2023/01/18 03:49:35;;;;;;;7.03;4.20;;;;;;;0.99;62.77;98907.84;4909348;28;97427;-49
2023/01/18 03:52:08;;;;;;;9.07;4.90;;;;;;;0.97;62.54;98908.31;4905523;28;96986;-48
2023/01/18 03:54:46;;;;;;;10.00;4.50;;;;;;;0.97;62.81;98905.63;4914141;28;96960;-49
2023/01/18 03:57:48;;;;;;;8.27;4.23;;;;;;;0.96;62.94;98906.81;4906178;28;97537;-49
2023/01/18 04:00:15;;;;;;;6.77;4.47;;;;;;;0.93;62.90;98907.03;4906139;28;97004;-48
2023/01/18 04:02:43;;;;;;;7.23;4.83;;;;;;;0.92;62.87;98916.38;4913407;28;97052;-49
2023/01/18 04:05:09;;;;;;;5.47;3.80;;;;;;;0.91;63.07;98921.03;4911108;28;97371;-48
2023/01/18 04:07:35;;;;;;;7.70;4.53;;;;;;;0.93;62.85;98909.72;4911415;28;97288;-49
2023/01/18 04:10:00;;;;;;;8.20;5.20;;;;;;;0.97;63.05;98910.28;4911808;28;97251;-48
2023/01/18 04:12:26;;;;;;;6.33;3.93;;;;;;;0.99;62.64;98910.56;4912677;28;96704;-49
2023/01/18 04:14:52;;;;;;;8.07;4.30;;;;;;;0.99;62.82;98913.25;4906951;28;97375;-48
2023/01/18 04:17:17;;;;;;;9.83;4.87;;;;;;;0.99;62.80;98910.56;4912311;28;96929;-49
2023/01/18 04:19:43;;;;;;;8.20;4.83;;;;;;;1.00;62.68;98917.47;4915852;28;97976;-49
2023/01/18 04:22:09;;;;;;;11.63;4.73;;;;;;;1.00;62.53;98912.81;4910974;28;96639;-49
2023/01/18 04:24:34;;;;;;;6.40;4.50;;;;;;;0.98;62.90;98915.25;4915245;28;97429;-49
2023/01/18 04:27:00;;;;;;;10.40;5.00;;;;;;;0.97;62.63;98915.69;4905726;28;97401;-49
2023/01/18 04:29:26;;;;;;;10.47;5.37;;;;;;;0.93;62.75;98915.16;4905930;28;97151;-48
2023/01/18 04:31:52;;;;;;;13.70;5.03;;;;;;;0.92;62.77;98924.50;4908944;28;97073;-48
2023/01/18 04:34:17;;;;;;;6.27;4.20;;;;;;;0.91;62.48;98920.28;4912624;28;96680;-48
2023/01/18 04:36:43;;;;;;;6.23;4.60;;;;;;;0.89;62.95;98920.75;4900661;28;100017;-49
2023/01/18 04:39:11;;;;;;;8.40;4.83;;;;;;;0.88;62.63;98921.97;4913728;28;97219;-48
2023/01/18 04:41:37;;;;;;;12.83;4.30;;;;;;;0.86;63.04;98924.38;4912124;28;97842;-48
2023/01/18 04:44:02;;;;;;;9.50;5.20;;;;;;;0.86;62.96;98932.50;4907355;28;97098;-49
2023/01/18 04:46:27;;;;;;;5.77;3.77;;;;;;;0.85;62.56;98928.31;4912894;28;97323;-48
2023/01/18 04:48:53;;;;;;;9.33;4.67;;;;;;;0.84;62.61;98920.66;4911715;28;97147;-48
2023/01/18 04:51:19;;;;;;;5.90;3.90;;;;;;;0.85;62.88;98916.75;4908092;28;96978;-49
2023/01/18 04:53:45;;;;;;;7.90;4.80;;;;;;;0.87;62.80;98917.03;4907450;28;97346;-48
2023/01/18 04:56:11;;;;;;;12.03;4.20;;;;;;;0.87;62.43;98919.72;4905242;28;98386;-48
2023/01/18 04:58:36;;;;;;;10.67;5.40;;;;;;;0.86;62.46;98920.94;4906293;28;96918;-48
2023/01/18 05:01:04;;;;;;;7.90;4.87;;;;;;;0.82;62.71;98923.84;4907584;28;97534;-51
2023/01/18 05:03:30;;;;;;;6.80;4.20;;;;;;;0.79;62.47;98930.19;4900545;28;97218;-49
2023/01/18 05:05:55;;;;;;;6.83;4.43;;;;;;;0.74;62.54;98926.16;4904687;28;96853;-48
2023/01/18 05:08:22;;;;;;;8.87;4.83;;;;;;;0.71;62.60;98929.81;4908005;28;97187;-47
2023/01/18 05:10:47;;;;;;;7.70;4.27;;;;;;;0.70;62.59;98939.13;4907896;28;97309;-48
2023/01/18 05:13:12;;;;;;;7.63;4.90;;;;;;;0.67;62.40;98937.38;4908520;28;97209;-50
2023/01/18 05:15:38;;;;;;;11.90;5.50;;;;;;;0.67;62.84;98936.63;4901743;28;96786;-48
2023/01/18 05:18:05;;;;;;;10.90;4.20;;;;;;;0.65;62.58;98941.75;4907661;28;97837;-48
2023/01/18 05:20:31;;;;;;;10.33;4.57;;;;;;;0.62;62.66;98942.69;4906152;28;97004;-48
2023/01/18 05:22:56;;;;;;;7.80;5.30;;;;;;;0.55;62.33;98953.88;4905746;28;96994;-48
2023/01/18 05:25:21;;;;;;;10.60;5.50;;;;;;;0.52;62.83;98958.28;4905235;28;96846;-48
2023/01/18 05:27:47;;;;;;;7.23;5.00;;;;;;;0.51;62.61;98950.59;4906327;28;97788;-48
2023/01/18 05:30:12;;;;;;;7.07;4.73;;;;;;;0.52;63.06;98952.84;4909036;28;97038;-51
2023/01/18 05:32:38;;;;;;;6.73;4.33;;;;;;;0.54;63.19;98957.78;4910568;28;96810;-49
2023/01/18 05:35:04;;;;;;;7.47;4.63;;;;;;;0.58;62.89;98955.66;4904419;28;99360;-49
2023/01/18 05:37:29;;;;;;;8.10;5.20;;;;;;;0.59;62.84;98959.88;4906156;28;97287;-48
2023/01/18 05:39:55;;;;;;;7.97;5.13;;;;;;;0.58;62.62;98959.09;4906361;28;97349;-48
2023/01/18 05:42:20;;;;;;;7.97;5.43;;;;;;;0.58;62.39;98966.47;4908283;28;96801;-49
2023/01/18 05:44:45;;;;;;;9.60;5.03;;;;;;;0.57;62.49;98964.97;4905919;28;96847;-48
2023/01/18 05:47:11;;;;;;;8.17;4.80;;;;;;;0.51;62.78;98970.28;4910097;28;97693;-50
2023/01/18 05:49:36;;;;;;;9.17;4.93;;;;;;;0.47;62.67;98977.09;4906866;28;96976;-49
2023/01/18 05:52:01;;;;;;;8.80;5.13;;;;;;;0.47;62.96;98983.25;4907609;28;96685;-48
2023/01/18 05:54:27;;;;;;;11.20;4.80;;;;;;;0.46;62.98;98978.31;4906189;28;97852;-48
2023/01/18 05:56:52;;;;;;;10.23;4.90;;;;;;;0.46;63.06;98983.72;4910470;28;97141;-48
2023/01/18 05:59:18;;;;;;;7.17;5.33;;;;;;;0.46;62.80;98989.13;4905340;28;97325;-50
2023/01/18 06:01:43;;;;;;;9.00;5.20;;;;;;;0.47;63.14;98991.38;4907092;28;96984;-49
2023/01/18 06:04:08;;;;;;;8.57;5.27;;;;;;;0.49;62.78;98994.34;4909990;28;96790;-48
2023/01/18 06:06:34;;;;;;;8.30;5.60;;;;;;;0.50;62.57;98998.53;4906643;28;97059;-49
2023/01/18 06:09:00;;;;;;;8.00;5.10;;;;;;;0.46;63.05;99003.38;4910553;28;97188;-48
2023/01/18 06:11:26;;;;;;;13.43;5.07;;;;;;;0.46;63.03;99013.47;4913789;28;97309;-49
2023/01/18 06:13:51;;;;;;;9.27;4.90;;;;;;;0.46;62.58;99016.19;4909354;28;96965;-49
2023/01/18 06:16:16;;;;;;;9.67;5.10;;;;;;;0.42;62.48;99005.53;4912748;28;97402;-49
2023/01/18 06:18:42;;;;;;;6.73;4.17;;;;;;;0.43;62.49;99022.50;4911265;28;96655;-51
2023/01/18 06:21:09;;;;;;;13.60;7.30;;;;;;;0.40;62.62;99012.59;4909933;28;96590;-48
2023/01/18 06:23:35;;;;;;;10.93;6.20;;;;;;;0.39;62.64;99011.13;4910179;28;97342;-49
2023/01/18 06:26:00;;;;;;;12.40;6.50;;;;;;;0.39;62.67;99013.81;4910979;28;96945;-49
2023/01/18 06:28:26;;;;;;;9.27;5.80;;;;;;;0.39;62.48;99024.63;4908950;28;96927;-48
2023/01/18 06:30:52;;;;;;;15.37;6.47;;;;;;;0.38;62.64;99018.47;4904935;28;96816;-50
2023/01/18 06:33:17;;;;;;;13.47;5.17;;;;;;;0.34;62.77;99023.31;4910020;28;97269;-50
2023/01/18 06:35:42;;;;;;;11.00;5.53;;;;;;;0.33;62.67;99021.09;4912121;28;97012;-50
2023/01/18 06:38:09;;;;;;;21.10;6.70;;;;;;;0.32;62.74;99027.69;4913734;28;97092;-47
2023/01/18 06:40:35;;;;;;;9.90;5.57;;;;;;;0.30;62.46;99063.31;4914638;28;97130;-49
2023/01/18 06:43:00;;;;;;;15.30;6.00;;;;;;;0.28;62.16;99043.34;4908389;28;97362;-48
2023/01/18 06:45:27;;;;;;;9.40;5.20;;;;;;;0.28;62.53;99051.47;4904491;28;97554;-49
2023/01/18 06:47:52;;;;;;;9.57;5.97;;;;;;;0.24;62.74;99051.63;4913177;28;97174;-48
2023/01/18 06:50:18;;;;;;;10.90;5.70;;;;;;;0.19;62.64;99052.28;4914049;28;96594;-49
2023/01/18 06:52:44;;;;;;;7.90;4.80;;;;;;;0.20;62.70;99059.16;4908789;28;97263;-49
2023/01/18 06:55:11;;;;;;;8.30;5.13;;;;;;;0.22;62.44;99064.13;4912592;28;97843;-48
2023/01/18 06:57:36;;;;;;;9.30;5.43;;;;;;;0.22;62.95;99066.81;4909287;28;97533;-49
2023/01/18 07:00:05;;;;;;;9.57;5.13;;;;;;;0.24;62.88;99075.94;4910346;28;97156;-49
2023/01/18 07:02:31;;;;;;;9.23;5.60;;;;;;;0.24;62.64;99069.81;4915059;28;97652;-49
2023/01/18 07:04:57;;;;;;;11.13;6.30;;;;;;;0.25;62.72;99076.69;4903155;28;98475;-49
2023/01/18 07:07:22;;;;;;;10.20;5.93;;;;;;;0.27;62.84;99083.16;4909443;28;97125;-50
2023/01/18 07:09:47;;;;;;;12.33;5.20;;;;;;;0.31;62.95;99082.97;4915282;28;97265;-49
2023/01/18 07:12:13;;;;;;;11.53;5.73;;;;;;;0.33;62.85;99094.09;4911750;28;96642;-49
2023/01/18 07:14:38;;;;;;;14.50;6.43;;;;;;;0.32;62.84;99098.75;4908217;28;97093;-49
2023/01/18 07:17:04;;;;;;;9.90;5.53;;;;;;;0.31;63.06;99099.94;4910304;28;97036;-50
2023/01/18 07:19:29;;;;;;;11.80;6.03;;;;;;;0.30;62.96;99101.16;4909492;28;96895;-49
2023/01/18 07:21:54;;;;;;;7.80;5.70;;;;;;;0.30;63.07;99105.81;4908974;28;97357;-49
2023/01/18 07:24:20;;;;;;;10.43;5.53;;;;;;;0.33;62.82;99111.06;4912468;28;97629;-48
2023/01/18 07:26:45;;;;;;;10.67;5.50;;;;;;;0.34;62.53;99103.69;4919739;28;96696;-49
2023/01/18 07:29:11;;;;;;;13.60;5.77;;;;;;;0.37;62.83;99119.75;4908487;28;96899;-48
2023/01/18 07:31:37;;;;;;;10.50;5.60;;;;;;;0.40;62.89;99113.41;4916012;28;97319;-48
2023/01/18 07:34:03;;;;;;;10.40;5.50;;;;;;;0.42;62.68;99113.69;4910579;28;97051;-49
2023/01/18 07:36:29;;;;;;;9.70;5.47;;;;;;;0.46;62.80;99124.38;4907495;28;96940;-48
2023/01/18 07:38:54;;;;;;;6.30;4.63;;;;;;;0.47;62.77;99136.66;4914846;28;97110;-49
2023/01/18 07:41:21;;;;;;;8.37;4.70;;;;;;;0.48;62.72;99128.09;4913463;28;96834;-50
2023/01/18 07:43:47;;;;;;;9.20;4.87;;;;;;;0.49;62.96;99128.84;4909385;28;97260;-48
2023/01/18 07:46:15;;;;;;;9.33;5.13;;;;;;;0.50;62.80;99133.06;4911756;28;96990;-49
2023/01/18 07:48:41;;;;;;;8.27;4.83;;;;;;;0.50;62.77;99136.47;4914886;28;97483;-48
2023/01/18 07:51:09;;;;;;;10.80;5.00;;;;;;;0.51;62.89;99140.69;4911336;28;97286;-50
2023/01/18 07:53:35;;;;;;;8.80;5.70;;;;;;;0.54;62.84;99147.91;4913630;28;97949;-50
2023/01/18 07:56:03;;;;;;;10.97;5.70;;;;;;;0.57;63.12;99152.38;4912793;28;96811;-50
2023/01/18 07:58:29;;;;;;;10.53;5.50;;;;;;;0.57;62.84;99148.91;4908676;28;96767;-50
2023/01/18 08:01:00;;;;;;;10.47;4.50;;;;;;;0.57;62.80;99144.25;4909068;28;97982;-48
2023/01/18 08:03:25;;;;;;;7.70;5.30;;;;;;;0.57;63.12;99151.63;4915562;28;97265;-48
2023/01/18 08:05:50;;;;;;;9.57;5.00;;;;;;;0.59;62.84;99149.22;4917846;28;96767;-49
2023/01/18 08:08:16;;;;;;;8.93;4.67;;;;;;;0.60;62.69;99165.00;4911488;28;97066;-49
2023/01/18 08:10:43;;;;;;;7.03;4.47;;;;;;;0.61;63.08;99171.88;4911204;28;97046;-49
2023/01/18 08:13:09;;;;;;;7.90;5.27;;;;;;;0.64;63.11;99167.53;4908625;28;96987;-48
2023/01/18 08:15:35;;;;;;;8.50;5.10;;;;;;;0.67;63.03;99163.91;4909346;28;97660;-49
2023/01/18 08:18:02;;;;;;;8.63;5.07;;;;;;;0.71;62.66;99200.41;4912301;28;96931;-48
2023/01/18 08:20:29;;;;;;;8.90;5.00;;;;;;;0.75;63.02;99173.16;4908932;28;96986;-49
2023/01/18 08:22:56;;;;;;;9.67;6.00;;;;;;;0.75;62.97;99168.50;4907271;28;97148;-49
2023/01/18 08:25:22;;;;;;;13.20;5.30;;;;;;;0.78;62.74;99196.59;4913409;28;96714;-49
2023/01/18 08:27:48;;;;;;;10.70;5.40;;;;;;;0.81;63.10;99187.56;4907712;28;96975;-48
2023/01/18 08:30:13;;;;;;;6.67;4.23;;;;;;;0.85;62.84;99190.84;4907239;28;97343;-48
2023/01/18 08:32:38;;;;;;;10.17;5.03;;;;;;;0.89;63.06;99193.38;4914239;28;96683;-49
2023/01/18 08:35:04;;;;;;;6.30;4.20;;;;;;;0.92;62.71;99187.06;4908597;28;97085;-48
2023/01/18 08:37:30;;;;;;;12.60;5.80;;;;;;;0.95;63.14;99186.88;4907869;28;96850;-49
2023/01/18 08:39:55;;;;;;;8.77;5.00;;;;;;;1.00;62.79;99194.34;4915076;28;97221;-49
2023/01/18 08:42:20;;;;;;;8.37;5.13;;;;;;;1.04;63.19;99192.22;4911334;28;97122;-51
2023/01/18 08:44:47;;;;;;;7.20;4.60;;;;;;;1.08;62.92;99206.31;4908341;28;97078;-48
2023/01/18 08:47:14;;;;;;;8.07;4.43;;;;;;;1.12;62.74;99204.19;4910320;28;96782;-48
2023/01/18 08:49:39;;;;;;;7.77;4.70;;;;;;;1.15;63.09;99200.56;4907450;28;97262;-50
2023/01/18 08:52:05;;;;;;;11.83;6.17;;;;;;;1.16;62.86;99212.88;4897928;28;97354;-49
2023/01/18 08:54:31;;;;;;;6.37;4.53;;;;;;;1.20;63.08;99210.00;4910601;28;96935;-49
2023/01/18 08:56:56;;;;;;;6.97;5.63;;;;;;;1.27;62.94;99212.34;4907857;28;97043;-49
2023/01/18 08:59:22;;;;;;;6.60;4.73;;;;;;;1.30;62.82;99211.41;4906317;28;97447;-49
2023/01/18 09:01:48;;;;;;;7.77;5.10;;;;;;;1.33;63.01;99224.78;4907890;28;97699;-49
2023/01/18 09:04:13;;;;;;;6.70;4.77;;;;;;;1.37;62.75;99219.94;4908925;28;97128;-48
2023/01/18 09:06:38;;;;;;;9.03;5.00;;;;;;;1.41;63.06;99219.75;4906210;28;97442;-48
2023/01/18 09:09:04;;;;;;;7.93;4.70;;;;;;;1.42;62.86;99226.69;4907785;28;97705;-48
2023/01/18 09:11:29;;;;;;;6.93;4.77;;;;;;;1.41;63.08;99225.19;4907516;28;97211;-49
2023/01/18 09:13:55;;;;;;;7.27;4.37;;;;;;;1.42;63.04;99226.69;4902693;28;97278;-49
2023/01/18 09:16:21;;;;;;;14.37;5.27;;;;;;;1.46;62.80;99236.09;4905858;28;96740;-49
2023/01/18 09:18:48;;;;;;;8.97;5.10;;;;;;;1.50;63.01;99242.13;4905912;28;97863;-49
2023/01/18 09:21:16;;;;;;;9.13;5.33;;;;;;;1.52;62.87;99250.53;4905236;28;97191;-49
2023/01/18 09:23:42;;;;;;;7.97;4.80;;;;;;;1.56;62.86;99250.34;4905254;28;96713;-49
2023/01/18 09:26:11;;;;;;;13.93;5.80;;;;;;;1.61;62.91;99252.41;4910623;28;97263;-48
2023/01/18 09:28:37;;;;;;;8.20;4.67;;;;;;;1.65;62.85;99254.94;4900342;28;98094;-51
2023/01/18 09:31:04;;;;;;;8.03;5.50;;;;;;;1.66;62.71;99259.88;4907586;28;97042;-48
2023/01/18 09:33:30;;;;;;;9.10;5.50;;;;;;;1.69;63.01;99263.63;4908894;28;96731;-49
2023/01/18 09:35:59;;;;;;;11.03;5.30;;;;;;;1.67;63.19;99260.63;4907638;28;97105;-49
2023/01/18 09:38:25;;;;;;;6.17;4.67;;;;;;;1.68;62.88;99273.75;4906096;28;96975;-48
2023/01/18 09:40:51;;;;;;;7.53;5.00;;;;;;;1.70;62.87;99273.25;4918060;28;97492;-47
2023/01/18 09:43:25;;;;;;;6.60;4.67;;;;;;;1.71;63.06;99280.16;4909173;28;96921;-48
2023/01/18 09:45:50;;;;;;;9.13;4.67;;;;;;;1.75;62.97;99281.47;4914346;28;96682;-48
2023/01/18 09:48:38;;;;;;;14.07;5.33;;;;;;;1.80;63.07;99271.97;4917589;28;97280;-48
2023/01/18 09:51:11;;;;;;;8.03;5.10;;;;;;;1.83;63.16;99276.47;4930998;28;98598;-48
2023/01/18 09:53:53;;;;;;;8.20;5.20;;;;;;;1.85;62.97;99282.16;4912670;28;96980;-49
2023/01/18 09:56:29;;;;;;;12.43;5.73;;;;;;;1.89;63.15;99282.72;4914497;28;96906;-48
2023/01/18 09:59:20;;;;;;;10.47;7.07;;;;;;;1.95;62.92;99276.19;4909891;28;97320;-48
2023/01/18 10:01:47;;;;;;;19.80;9.63;;;;;;;1.99;63.16;99276.00;4910211;28;97212;-48
2023/01/18 10:04:31;;;;;;;18.53;10.07;;;;;;;2.06;62.94;99276.38;4925003;28;96730;-48
2023/01/18 10:07:04;;;;;;;16.50;9.73;;;;;;;2.11;63.24;99281.16;4909645;28;97764;-48
2023/01/18 10:09:40;;;;;;;20.27;9.90;;;;;;;2.18;63.14;99280.03;4913775;28;97268;-48
2023/01/18 10:12:20;;;;;;;12.50;8.90;;;;;;;2.26;63.25;99281.16;4913539;28;97380;-48
2023/01/18 10:15:04;;;;;;;14.93;8.37;;;;;;;2.32;63.08;99287.41;4908926;28;97086;-51
2023/01/18 10:17:35;;;;;;;14.37;9.40;;;;;;;2.39;63.27;99283.56;4917566;28;96646;-50
2023/01/18 10:20:30;;;;;;;11.47;6.90;;;;;;;2.45;63.27;99274.28;4912648;28;96919;-48
2023/01/18 10:23:17;;;;;;;13.13;7.73;;;;;;;2.56;63.58;99281.84;4909764;28;97797;-48
2023/01/18 10:26:09;;;;;;;14.20;7.97;;;;;;;2.65;63.26;99281.75;4916193;28;96748;-49
2023/01/18 10:28:34;;;;;;;12.50;7.57;;;;;;;2.72;63.14;99279.41;4905299;28;97442;-50
2023/01/18 10:31:37;;;;;;;13.30;7.17;;;;;;;2.82;63.26;99280.78;4915115;28;97818;-48
2023/01/18 10:34:13;;;;;;;10.07;6.20;;;;;;;2.85;63.19;99282.56;4917634;28;97184;-48
2023/01/18 10:36:43;;;;;;;8.30;5.93;;;;;;;2.92;63.45;99284.13;4909118;28;96929;-51
2023/01/18 10:39:37;;;;;;;9.13;5.97;;;;;;;3.01;63.57;99282.03;4912841;28;96995;-50
2023/01/18 10:42:08;;;;;;;12.33;6.83;;;;;;;3.09;63.33;99293.25;4904424;28;97077;-48
2023/01/18 10:44:34;;;;;;;9.03;5.73;;;;;;;3.19;63.24;99304.75;4909902;28;97262;-48
2023/01/18 10:47:00;;;;;;;8.90;6.30;;;;;;;3.27;63.04;99297.69;4919126;28;97223;-48
2023/01/18 10:49:39;;;;;;;6.27;4.97;;;;;;;3.33;63.25;99306.63;4910068;28;96783;-48
2023/01/18 10:52:29;;;;;;;8.07;5.57;;;;;;;3.40;63.49;99295.38;4907731;28;97052;-50
2023/01/18 10:55:07;;;;;;;8.90;5.33;;;;;;;3.47;63.25;99297.69;4915556;28;98615;-48
2023/01/18 10:57:36;;;;;;;9.67;5.50;;;;;;;3.54;62.99;99299.97;4908393;28;97211;-49
2023/01/18 11:00:11;;;;;;;13.73;6.53;;;;;;;3.59;63.12;99307.44;4909612;28;97175;-49
2023/01/18 11:02:37;;;;;;;9.20;5.67;;;;;;;3.65;63.27;99300.09;4909425;28;97073;-49
2023/01/18 11:05:29;;;;;;;10.30;6.17;;;;;;;3.77;63.59;99307.16;4910617;28;96862;-49
2023/01/18 11:08:16;;;;;;;10.97;6.90;;;;;;;3.85;63.42;99305.50;4909805;28;97161;-49
2023/01/18 11:10:41;;;;;;;9.30;6.57;;;;;;;3.93;63.42;99308.56;4912280;28;97161;-48
2023/01/18 11:13:30;;;;;;;11.50;6.50;;;;;;;3.99;63.37;99312.09;4917404;28;97918;-48
2023/01/18 11:16:22;;;;;;;9.00;5.90;;;;;;;4.05;63.63;99310.91;4919654;28;100300;-49
2023/01/18 11:18:56;;;;;;;11.37;6.03;;;;;;;4.13;63.39;99305.81;4911028;28;97292;-48
2023/01/18 11:21:23;;;;;;;9.67;6.50;;;;;;;4.20;63.25;99300.69;4906640;28;97496;-49
2023/01/18 11:23:50;;;;;;;10.70;6.70;;;;;;;4.26;63.17;99303.47;4910037;28;97288;-49
2023/01/18 11:26:20;;;;;;;16.73;7.10;;;;;;;4.28;63.58;99307.19;4912712;28;97245;-48
2023/01/18 11:28:59;;;;;;;12.70;7.30;;;;;;;4.33;63.40;99314.66;4904929;28;97018;-49
2023/01/18 11:31:27;;;;;;;11.47;6.83;;;;;;;4.41;63.46;99295.91;4910640;28;97016;-48
2023/01/18 11:33:56;;;;;;;11.33;6.73;;;;;;;4.48;63.18;99303.63;4911454;28;97107;-51
2023/01/18 11:36:40;;;;;;;11.07;7.17;;;;;;;4.50;63.24;99301.91;4911459;28;97399;-48
2023/01/18 11:39:34;;;;;;;15.30;8.77;;;;;;;4.56;63.09;99294.53;4912811;28;96966;-48
2023/01/18 11:42:21;;;;;;;11.87;7.03;;;;;;;4.62;63.03;99299.28;4910888;28;97069;-49
2023/01/18 11:44:59;;;;;;;14.27;7.07;;;;;;;4.65;62.87;99293.63;4907349;28;98531;-48
2023/01/18 11:47:39;;;;;;;8.53;6.10;;;;;;;4.71;63.05;99299.09;4915119;28;97154;-49
2023/01/18 11:50:14;;;;;;;13.80;6.20;;;;;;;4.78;62.81;99298.66;4913738;28;97992;-48
2023/01/18 11:52:52;;;;;;;7.30;5.33;;;;;;;4.84;62.87;99294.75;4908513;28;97221;-50
2023/01/18 11:55:24;;;;;;;10.27;6.17;;;;;;;4.90;63.05;99300.22;4907981;28;97194;-49
2023/01/18 11:57:52;;;;;;;15.40;6.70;;;;;;;4.92;63.04;99297.75;4897007;28;98637;-51
2023/01/18 12:00:27;;;;;;;7.77;5.67;;;;;;;5.01;62.88;99300.28;4910682;28;97035;-50
2023/01/18 12:03:48;;;;;;;11.20;6.60;;;;;;;5.12;62.46;99305.81;4911328;28;96827;-50
2023/01/18 12:06:45;;;;;;;12.03;5.80;;;;;;;5.23;62.25;99309.34;4844075;28;96947;-49
2023/01/18 12:09:11;;;;;;;9.70;6.00;;;;;;;5.29;62.65;99314.81;4893178;28;97313;-49
2023/01/18 12:11:46;;;;;;;9.00;6.17;;;;;;;5.28;62.51;99307.88;4912101;28;96808;-52
2023/01/18 12:14:41;;;;;;;9.00;5.90;;;;;;;5.38;62.31;99313.88;4908594;28;96770;-49
2023/01/18 12:17:34;;;;;;;9.40;6.40;;;;;;;5.38;62.55;99317.34;4910988;28;97114;-51
2023/01/18 12:20:15;;;;;;;11.03;6.90;;;;;;;5.38;62.22;99320.06;4910509;28;96983;-48
2023/01/18 12:23:16;;;;;;;7.40;5.23;;;;;;;5.39;61.93;99318.84;4905848;28;96695;-49
2023/01/18 12:26:19;;;;;;;7.83;5.43;;;;;;;5.38;62.04;99311.88;4915646;28;97082;-50